createdAt,value
2022-10-26T00:00:48.055Z,97054.13
2022-10-26T00:03:17.868Z,97061.75
2022-10-26T00:05:46.204Z,97066.91
2022-10-26T00:08:12.983Z,97062.28
2022-10-26T00:10:40.617Z,97067.19
2022-10-26T00:13:09.871Z,97070.75
2022-10-26T00:15:41.335Z,97070.38
2022-10-26T00:18:08.679Z,97066.25
2022-10-26T00:23:15.466Z,97066.94
2022-10-26T00:25:42.942Z,97070.56
2022-10-26T00:28:10.888Z,97066.94
2022-10-26T00:30:41.596Z,97057.31
2022-10-26T00:33:11.235Z,97062.16
2022-10-26T00:35:46.030Z,97054.91
2022-10-26T00:40:55.575Z,97064.84
2022-10-26T00:43:29.926Z,97061.81
2022-10-26T00:45:57.902Z,97066.19
2022-10-26T00:48:29.691Z,97064.38
2022-10-26T00:53:37.852Z,97061.94
2022-10-26T00:56:05.203Z,97059.31
2022-10-26T01:01:12.759Z,97060.31
2022-10-26T01:03:39.678Z,97057.84
2022-10-26T01:08:52.657Z,97066.00
2022-10-26T01:11:19.297Z,97062.19
2022-10-26T01:16:45.267Z,97058.75
2022-10-26T01:19:24.716Z,97050.03
2022-10-26T01:24:51.067Z,97051.75
2022-10-26T01:27:32.094Z,97050.38
2022-10-26T01:29:58.687Z,97053.69
2022-10-26T01:32:25.248Z,97049.31
2022-10-26T01:34:54.403Z,97048.22
2022-10-26T01:37:25.263Z,97047.50
2022-10-26T01:39:58.635Z,97051.78
2022-10-26T01:42:25.619Z,97053.13
2022-10-26T01:45:02.574Z,97050.53
2022-10-26T01:47:32.662Z,97047.09
2022-10-26T01:52:47.531Z,97037.16
2022-10-26T02:04:32.084Z,97028.16
2022-10-26T02:07:19.471Z,97025.38
2022-10-26T02:12:59.431Z,97025.88
2022-10-26T02:15:31.312Z,97018.41
2022-10-26T02:20:45.701Z,97016.41
2022-10-26T02:23:20.660Z,97016.34
2022-10-26T02:25:51.294Z,97011.69
2022-10-26T02:28:22.304Z,97021.16
2022-10-26T02:30:50.831Z,97011.31
2022-10-26T02:33:17.764Z,97007.53
2022-10-26T02:35:47.582Z,96999.44
2022-10-26T02:38:18.663Z,96995.81
2022-10-26T02:40:46.638Z,96991.91
2022-10-26T02:43:17.858Z,96997.53
2022-10-26T02:45:46.470Z,96993.09
2022-10-26T02:48:14.446Z,96994.81
2022-10-26T02:50:48.359Z,96997.44
2022-10-26T02:53:38.143Z,96995.88
2022-10-26T02:56:06.975Z,96996.75
2022-10-26T03:03:58.785Z,96975.50
2022-10-26T03:06:27.576Z,96979.78
2022-10-26T03:08:56.159Z,96976.25
2022-10-26T03:11:23.303Z,96974.47
2022-10-26T03:13:51.107Z,96976.13
2022-10-26T03:16:21.306Z,96969.72
2022-10-26T03:18:52.196Z,96972.25
2022-10-26T03:21:21.032Z,96970.63
2022-10-26T03:23:48.363Z,96975.91
2022-10-26T03:26:21.471Z,96977.56
2022-10-26T03:28:48.786Z,96978.84
2022-10-26T03:31:23.735Z,96980.91
2022-10-26T03:33:51.345Z,96970.97
2022-10-26T03:36:21.644Z,96978.88
2022-10-26T03:38:48.437Z,96981.75
2022-10-26T03:41:19.216Z,96975.22
2022-10-26T03:43:51.752Z,96973.63
2022-10-26T03:46:20.015Z,96971.22
2022-10-26T03:48:56.524Z,96971.25
2022-10-26T03:57:00.171Z,96981.78
2022-10-26T04:04:58.155Z,96987.13
2022-10-26T04:07:24.787Z,96978.56
2022-10-26T04:09:51.613Z,96981.03
2022-10-26T04:12:20.226Z,96979.78
2022-10-26T04:17:26.697Z,96982.22
2022-10-26T04:19:53.666Z,96984.69
2022-10-26T04:22:20.387Z,96985.91
2022-10-26T04:30:25.746Z,96986.50
2022-10-26T04:32:53.108Z,96993.44
2022-10-26T04:35:26.680Z,96986.31
2022-10-26T04:40:47.724Z,96997.31
2022-10-26T04:43:14.565Z,96990.78
2022-10-26T04:45:43.814Z,96993.22
2022-10-26T04:48:16.796Z,97001.72
2022-10-26T04:50:49.531Z,96991.34
2022-10-26T04:53:16.620Z,96987.03
2022-10-26T04:58:24.495Z,96988.25
2022-10-26T05:00:53.167Z,96980.75
2022-10-26T05:03:21.953Z,96978.72
2022-10-26T05:05:48.798Z,96984.44
2022-10-26T05:08:16.191Z,96981.19
2022-10-26T05:10:51.622Z,96989.06
2022-10-26T05:16:00.736Z,96979.38
2022-10-26T05:21:12.823Z,96984.84
2022-10-26T05:23:42.062Z,96981.59
2022-10-26T05:26:12.200Z,96977.72
2022-10-26T05:28:40.395Z,96975.06
2022-10-26T05:31:07.818Z,96975.13
2022-10-26T05:33:36.598Z,96974.91
2022-10-26T05:36:07.939Z,96971.66
2022-10-26T05:41:21.751Z,96985.28
2022-10-26T05:43:48.950Z,96986.53
2022-10-26T05:46:30.232Z,96990.78
2022-10-26T05:49:01.409Z,96987.56
2022-10-26T05:51:30.348Z,96982.66
2022-10-26T05:54:12.939Z,96996.31
2022-10-26T05:56:42.344Z,96995.50
2022-10-26T06:01:44.344Z,96996.94
2022-10-26T06:04:26.678Z,96994.06
2022-10-26T06:06:58.105Z,96997.13
2022-10-26T06:09:27.750Z,96987.16
2022-10-26T06:11:56.664Z,97002.22
2022-10-26T06:17:27.384Z,97005.88
2022-10-26T06:20:23.304Z,96989.81
2022-10-26T06:25:50.739Z,97001.44
2022-10-26T06:28:20.790Z,96993.91
2022-10-26T06:33:33.743Z,96990.66
2022-10-26T06:36:06.542Z,96995.72
2022-10-26T06:41:19.559Z,97010.38
2022-10-26T06:43:47.064Z,97002.44
2022-10-26T06:49:29.772Z,96994.09
2022-10-26T06:54:26.345Z,96998.94
2022-10-26T07:02:20.428Z,97007.88
2022-10-26T07:04:47.932Z,97008.13
2022-10-26T07:07:24.566Z,97013.13
2022-10-26T07:12:33.308Z,97009.84
2022-10-26T07:15:02.673Z,97014.72
2022-10-26T07:17:32.287Z,97015.53
2022-10-26T07:20:06.899Z,97021.47
2022-10-26T07:22:54.215Z,97019.66
2022-10-26T07:25:24.335Z,97021.06
2022-10-26T07:28:05.028Z,97029.06
2022-10-26T07:33:17.344Z,97023.72
2022-10-26T07:35:44.293Z,97017.16
2022-10-26T07:38:11.260Z,97032.69
2022-10-26T07:40:43.257Z,97026.38
2022-10-26T07:43:13.668Z,97031.25
2022-10-26T07:48:27.315Z,97035.94
2022-10-26T07:50:54.212Z,97026.53
2022-10-26T07:53:26.695Z,97026.97
2022-10-26T07:55:59.995Z,97042.88
2022-10-26T07:58:27.561Z,97036.16
2022-10-26T08:01:06.176Z,97036.38
2022-10-26T08:03:37.049Z,97038.59
2022-10-26T08:06:06.030Z,97043.13
2022-10-26T08:08:33.165Z,97042.88
2022-10-26T08:11:00.488Z,97054.53
2022-10-26T08:13:27.237Z,97057.59
2022-10-26T08:16:04.089Z,97053.13
2022-10-26T08:18:30.734Z,97058.03
2022-10-26T08:21:10.292Z,97058.97
2022-10-26T08:23:38.574Z,97062.19
2022-10-26T08:26:06.222Z,97047.25
2022-10-26T08:28:38.051Z,97050.00
2022-10-26T08:31:05.341Z,97063.13
2022-10-26T08:33:32.147Z,97062.47
2022-10-26T08:36:00.115Z,97064.28
2022-10-26T08:38:26.967Z,97072.84
2022-10-26T08:40:54.232Z,97067.69
2022-10-26T08:43:31.477Z,97068.25
2022-10-26T08:45:59.707Z,97052.84
2022-10-26T08:48:32.247Z,97055.72
2022-10-26T08:51:09.071Z,97058.53
2022-10-26T08:53:45.930Z,97062.63
2022-10-26T08:56:19.386Z,97057.72
2022-10-26T08:58:47.735Z,97049.75
2022-10-26T09:01:14.683Z,97054.09
2022-10-26T09:03:42.667Z,97054.59
2022-10-26T09:06:20.784Z,97059.88
2022-10-26T09:08:59.230Z,97056.38
2022-10-26T09:11:28.813Z,97052.81
2022-10-26T09:14:09.573Z,97042.75
2022-10-26T09:16:39.157Z,97048.63
2022-10-26T09:19:11.541Z,97058.47
2022-10-26T09:32:50.829Z,97078.28
2022-10-26T09:35:21.812Z,97089.56
2022-10-26T09:37:57.470Z,97085.72
2022-10-26T09:40:29.646Z,97077.78
2022-10-26T09:45:49.018Z,97079.88
2022-10-26T09:48:30.798Z,97083.97
2022-10-26T09:51:10.573Z,97090.69
2022-10-26T09:53:38.473Z,97088.09
2022-10-26T09:58:54.988Z,97086.59
2022-10-26T10:04:20.859Z,97082.56
2022-10-26T10:06:56.720Z,97089.34
2022-10-26T10:12:09.088Z,97102.53
2022-10-26T10:14:47.072Z,97110.84
2022-10-26T10:17:22.194Z,97110.81
2022-10-26T10:19:51.678Z,97121.03
2022-10-26T10:22:38.556Z,97118.03
2022-10-26T10:27:59.816Z,97138.94
2022-10-26T10:30:31.693Z,97161.50
2022-10-26T10:33:15.012Z,97155.91
2022-10-26T10:35:49.592Z,97166.66
2022-10-26T10:38:17.797Z,97154.00
2022-10-26T10:40:49.771Z,97161.00
2022-10-26T10:43:16.946Z,97157.66
2022-10-26T10:45:59.923Z,97162.28
2022-10-26T10:48:29.493Z,97159.97
2022-10-26T10:51:07.819Z,97155.91
2022-10-26T10:53:38.077Z,97162.47
2022-10-26T10:56:11.527Z,97164.13
2022-10-26T10:58:54.349Z,97165.16
2022-10-26T11:01:26.993Z,97158.31
2022-10-26T11:04:02.609Z,97164.91
2022-10-26T11:06:29.330Z,97163.19
2022-10-26T11:09:10.004Z,97166.72
2022-10-26T11:11:41.732Z,97175.72
2022-10-26T11:14:12.710Z,97184.47
2022-10-26T11:16:42.825Z,97180.84
2022-10-26T11:19:17.296Z,97187.13
2022-10-26T11:21:44.634Z,97184.78
2022-10-26T11:24:14.154Z,97190.22
2022-10-26T11:29:38.248Z,97193.03
2022-10-26T11:32:09.326Z,97179.31
2022-10-26T11:34:36.138Z,97180.97
2022-10-26T11:39:58.663Z,97202.84
2022-10-26T11:42:26.780Z,97202.72
2022-10-26T11:44:56.144Z,97205.56
2022-10-26T11:47:24.648Z,97205.41
2022-10-26T11:49:58.122Z,97207.75
2022-10-26T11:52:37.011Z,97206.78
2022-10-26T11:57:55.335Z,97219.00
2022-10-26T12:00:22.737Z,97210.72
2022-10-26T12:02:54.446Z,97212.13
2022-10-26T12:11:19.111Z,97214.53
2022-10-26T12:13:48.253Z,97220.47
2022-10-26T12:50:24.517Z,97253.38
2022-10-26T12:52:53.361Z,97250.78
2022-10-26T12:55:21.097Z,97266.88
2022-10-26T12:58:01.691Z,97261.56
2022-10-26T13:00:29.310Z,97263.91
2022-10-26T13:03:00.088Z,97261.88
2022-10-26T13:05:32.872Z,97254.28
2022-10-26T13:08:09.982Z,97260.91
2022-10-26T13:10:37.393Z,97258.16
2022-10-26T13:13:05.695Z,97264.97
2022-10-26T13:15:39.806Z,97264.00
2022-10-26T13:18:06.973Z,97271.59
2022-10-26T13:20:34.237Z,97276.56
2022-10-26T13:25:29.608Z,97290.75
2022-10-26T13:30:46.292Z,97285.97
2022-10-26T13:33:20.832Z,97283.88
2022-10-26T13:35:47.671Z,97299.13
2022-10-26T13:38:24.793Z,97286.13
2022-10-26T13:40:55.645Z,97306.03
2022-10-26T13:43:25.290Z,97301.63
2022-10-26T13:46:13.162Z,97298.50
2022-10-26T13:48:42.215Z,97296.13
2022-10-26T13:51:36.393Z,97303.16
2022-10-26T13:54:04.670Z,97303.19
2022-10-26T13:56:33.096Z,97307.81
2022-10-26T14:01:46.924Z,97296.00
2022-10-26T14:07:00.360Z,97304.06
2022-10-26T14:09:27.510Z,97311.59
2022-10-26T14:12:00.352Z,97314.47
2022-10-26T14:17:25.435Z,97321.22
2022-10-26T14:19:57.460Z,97314.47
2022-10-26T14:25:35.935Z,97322.50
2022-10-26T14:28:22.779Z,97330.03
2022-10-26T14:30:49.573Z,97330.19
2022-10-26T14:33:21.407Z,97340.16
2022-10-26T14:49:23.249Z,97344.38
2022-10-26T14:51:50.196Z,97348.78
2022-10-26T14:54:21.174Z,97348.91
2022-10-26T14:59:32.834Z,97357.91
2022-10-26T15:01:59.635Z,97362.38
2022-10-26T15:04:34.209Z,97361.97
2022-10-26T15:07:13.172Z,97363.00
2022-10-26T15:09:43.809Z,97364.09
2022-10-26T15:12:20.702Z,97370.00
2022-10-26T15:17:36.736Z,97371.78
2022-10-26T15:20:08.885Z,97368.16
2022-10-26T15:28:24.271Z,97375.41
2022-10-26T15:31:04.869Z,97384.13
2022-10-26T15:36:09.055Z,97378.81
2022-10-26T15:38:35.893Z,97381.56
2022-10-26T15:41:03.876Z,97392.06
2022-10-26T15:43:30.711Z,97390.69
2022-10-26T15:45:58.164Z,97392.81
2022-10-26T15:48:29.325Z,97390.84
2022-10-26T15:50:56.245Z,97396.22
2022-10-26T15:53:23.904Z,97406.75
2022-10-26T15:55:51.794Z,97405.38
2022-10-26T15:58:18.719Z,97414.22
2022-10-26T16:00:45.687Z,97408.34
2022-10-26T16:03:23.471Z,97400.97
2022-10-26T16:06:00.349Z,97412.88
2022-10-26T16:08:27.666Z,97411.47
2022-10-26T16:10:55.703Z,97420.72
2022-10-26T16:13:22.597Z,97418.28
2022-10-26T16:15:49.351Z,97423.63
2022-10-26T16:18:16.114Z,97425.91
2022-10-26T16:20:45.059Z,97429.22
2022-10-26T16:23:13.802Z,97429.63
2022-10-26T16:25:41.872Z,97432.31
2022-10-26T16:28:09.572Z,97438.28
2022-10-26T16:30:37.079Z,97440.75
2022-10-26T16:33:03.914Z,97442.59
2022-10-26T16:35:30.644Z,97443.44
2022-10-26T16:37:57.278Z,97447.94
2022-10-26T16:40:24.087Z,97448.72
2022-10-26T16:42:51.061Z,97454.44
2022-10-26T16:45:18.081Z,97460.16
2022-10-26T16:47:44.838Z,97465.06
2022-10-26T16:50:12.087Z,97465.50
2022-10-26T16:52:39.005Z,97470.56
2022-10-26T16:55:06.635Z,97478.16
2022-10-26T16:57:33.401Z,97476.91
2022-10-26T17:00:00.115Z,97486.72
2022-10-26T17:02:26.857Z,97485.88
2022-10-26T17:04:53.535Z,97495.28
2022-10-26T17:07:20.115Z,97493.44
2022-10-26T17:09:46.643Z,97497.72
2022-10-26T17:12:13.417Z,97501.59
2022-10-26T17:14:40.232Z,97501.78
2022-10-26T17:17:06.860Z,97499.28
2022-10-26T17:19:33.490Z,97514.13
2022-10-26T17:22:02.688Z,97518.19
2022-10-26T17:24:31.691Z,97527.28
2022-10-26T17:26:59.714Z,97545.34
2022-10-26T17:29:26.509Z,97542.16
2022-10-26T17:31:53.167Z,97551.72
2022-10-26T17:34:19.784Z,97552.25
2022-10-26T17:36:46.341Z,97555.81
2022-10-26T17:39:13.010Z,97555.72
2022-10-26T17:41:39.690Z,97567.19
2022-10-26T17:44:06.398Z,97574.47
2022-10-26T17:46:34.142Z,97574.13
2022-10-26T17:49:01.074Z,97578.06
2022-10-26T17:51:28.653Z,97597.56
2022-10-26T17:53:55.460Z,97588.34
2022-10-26T17:56:26.481Z,97581.44
2022-10-26T17:59:00.236Z,97596.56
2022-10-26T18:01:35.319Z,97607.09
2022-10-26T18:06:46.296Z,97607.53
2022-10-26T18:09:13.687Z,97616.13
2022-10-26T18:11:41.647Z,97607.00
2022-10-26T18:14:09.119Z,97609.53
2022-10-26T18:16:37.356Z,97614.66
2022-10-26T18:19:05.259Z,97619.78
2022-10-26T18:21:32.850Z,97619.28
2022-10-26T18:23:59.596Z,97624.25
2022-10-26T18:26:28.926Z,97629.53
2022-10-26T18:28:56.141Z,97639.38
2022-10-26T18:31:23.201Z,97630.44
2022-10-26T18:33:50.125Z,97630.44
2022-10-26T18:36:18.023Z,97639.56
2022-10-26T18:38:44.627Z,97642.13
2022-10-26T18:41:11.854Z,97649.97
2022-10-26T18:43:42.151Z,97653.31
2022-10-26T18:46:09.928Z,97652.03
2022-10-26T18:48:36.719Z,97657.97
2022-10-26T18:51:04.116Z,97663.78
2022-10-26T18:53:32.203Z,97662.75
2022-10-26T18:56:02.359Z,97670.28
2022-10-26T18:58:29.748Z,97673.03
2022-10-26T19:01:04.416Z,97672.94
2022-10-26T19:03:30.978Z,97677.72
2022-10-26T19:05:57.503Z,97673.13
2022-10-26T19:08:27.814Z,97676.22
2022-10-26T19:10:54.876Z,97682.78
2022-10-26T19:13:21.545Z,97683.41
2022-10-26T19:15:48.083Z,97691.91
2022-10-26T19:18:14.736Z,97693.25
2022-10-26T19:20:42.774Z,97690.16
2022-10-26T19:23:11.748Z,97685.13
2022-10-26T19:25:38.286Z,97697.84
2022-10-26T19:28:04.860Z,97686.53
2022-10-26T19:30:33.364Z,97689.44
2022-10-26T19:33:00.267Z,97688.56
2022-10-26T19:35:26.908Z,97695.56
2022-10-26T19:37:53.458Z,97707.06
2022-10-26T19:40:19.982Z,97700.41
2022-10-26T19:42:46.690Z,97702.44
2022-10-26T19:45:13.360Z,97710.19
2022-10-26T19:47:40.084Z,97714.22
2022-10-26T19:50:07.328Z,97723.88
2022-10-26T19:52:33.921Z,97727.53
2022-10-26T19:55:00.519Z,97726.06
2022-10-26T19:57:27.041Z,97729.25
2022-10-26T19:59:53.730Z,97732.22
2022-10-26T20:02:20.410Z,97733.97
2022-10-26T20:04:47.067Z,97736.50
2022-10-26T20:07:15.365Z,97736.00
2022-10-26T20:09:42.146Z,97739.34
2022-10-26T20:12:12.849Z,97738.97
2022-10-26T20:14:39.880Z,97743.97
2022-10-26T20:17:07.020Z,97730.91
2022-10-26T20:19:33.628Z,97735.25
2022-10-26T20:22:00.277Z,97747.66
2022-10-26T20:24:26.984Z,97743.06
2022-10-26T20:26:53.631Z,97742.94
2022-10-26T20:29:21.764Z,97739.13
2022-10-26T20:31:51.506Z,97751.22
2022-10-26T20:34:20.404Z,97749.50
2022-10-26T20:36:47.191Z,97751.72
2022-10-26T20:39:14.031Z,97757.63
2022-10-26T20:41:41.513Z,97753.44
2022-10-26T20:44:12.736Z,97762.69
2022-10-26T20:46:39.638Z,97753.00
2022-10-26T20:49:07.623Z,97762.13
2022-10-26T20:51:51.975Z,97752.28
2022-10-26T20:54:28.726Z,97758.56
2022-10-26T20:56:55.949Z,97762.31
2022-10-26T20:59:25.307Z,97757.56
2022-10-26T21:01:51.993Z,97765.44
2022-10-26T21:04:18.627Z,97762.41
2022-10-26T21:06:45.311Z,97762.41
2022-10-26T21:09:11.899Z,97761.78
2022-10-26T21:11:38.563Z,97766.06
2022-10-26T21:14:06.543Z,97774.19
2022-10-26T21:16:33.166Z,97773.56
2022-10-26T21:19:00.407Z,97776.09
2022-10-26T21:21:27.052Z,97782.06
2022-10-26T21:23:53.630Z,97778.72
2022-10-26T21:26:20.192Z,97781.75
2022-10-26T21:28:46.741Z,97783.25
2022-10-26T21:31:17.351Z,97787.44
2022-10-26T21:33:44.220Z,97791.81
2022-10-26T21:36:14.300Z,97788.53
2022-10-26T21:38:41.528Z,97800.47
2022-10-26T21:41:16.741Z,97799.84
2022-10-26T21:43:49.224Z,97801.97
2022-10-26T21:46:16.663Z,97791.03
2022-10-26T21:48:43.430Z,97789.50
2022-10-26T21:51:17.269Z,97788.41
2022-10-26T21:53:43.954Z,97791.72
2022-10-26T21:56:17.671Z,97794.72
2022-10-26T21:58:44.578Z,97808.59
2022-10-26T22:01:15.261Z,97806.47
2022-10-26T22:03:42.415Z,97802.72
2022-10-26T22:06:09.663Z,97803.41
2022-10-26T22:08:36.879Z,97808.94
2022-10-26T22:11:08.598Z,97807.31
2022-10-26T22:13:37.151Z,97810.31
2022-10-26T22:16:07.916Z,97813.94
2022-10-26T22:18:34.911Z,97817.28
2022-10-26T22:21:01.615Z,97814.66
2022-10-26T22:23:28.275Z,97809.38
2022-10-26T22:25:54.924Z,97820.13
2022-10-26T22:28:21.515Z,97810.13
2022-10-26T22:30:48.669Z,97825.00
2022-10-26T22:33:15.935Z,97827.00
2022-10-26T22:35:43.354Z,97828.97
2022-10-26T22:38:12.445Z,97815.13
2022-10-26T22:40:39.208Z,97819.72
2022-10-26T22:43:06.843Z,97817.72
2022-10-26T22:45:33.659Z,97819.25
2022-10-26T22:48:00.426Z,97814.81
2022-10-26T22:50:27.470Z,97817.47
2022-10-26T22:52:54.444Z,97824.22
2022-10-26T22:55:21.359Z,97828.03
2022-10-26T22:57:48.786Z,97823.75
2022-10-26T23:00:15.913Z,97832.31
2022-10-26T23:02:42.753Z,97831.66
2022-10-26T23:05:09.910Z,97830.97
2022-10-26T23:07:37.011Z,97838.59
2022-10-26T23:10:04.347Z,97837.78
2022-10-26T23:12:31.029Z,97831.03
2022-10-26T23:14:57.710Z,97834.53
2022-10-26T23:17:24.558Z,97833.69
2022-10-26T23:19:51.132Z,97837.97
2022-10-26T23:22:17.684Z,97838.31
2022-10-26T23:24:44.443Z,97838.81
2022-10-26T23:27:11.172Z,97842.94
2022-10-26T23:29:37.893Z,97848.84
2022-10-26T23:32:04.827Z,97847.53
2022-10-26T23:34:31.927Z,97850.50
2022-10-26T23:36:59.190Z,97849.84
2022-10-26T23:39:28.353Z,97859.72
2022-10-26T23:41:55.441Z,97853.63
2022-10-26T23:44:22.336Z,97857.09
2022-10-26T23:46:49.281Z,97856.44
2022-10-26T23:49:16.252Z,97862.03
2022-10-26T23:51:43.216Z,97860.88
2022-10-26T23:54:09.899Z,97862.03
2022-10-26T23:56:36.853Z,97851.16
2022-10-26T23:59:07.725Z,97844.56
